Time;durP1;ratioP1;P1;durP2;ratioP2;P2;SDS_P1;SDS_P2;PMS_P1;PMS_P2;Temp;Humidity;BMP_temperature;BMP_pressure;BME280_temperature;BME280_humidity;BME280_pressure;Samples;Min_cycle;Max_cycle;Signal;HPM_P1;HPM_P2
2023/03/08 00:02:26;;;;;;;4.43;4.03;;;1.10;99.90;;;;;;5059080;28;20222;-76
2023/03/08 00:04:56;;;;;;;4.82;3.97;;;1.10;99.90;;;;;;5071687;28;20214;-75
2023/03/08 00:07:23;;;;;;;8.05;4.50;;;1.10;99.90;;;;;;5069208;28;20235;-76
2023/03/08 00:09:50;;;;;;;6.30;4.68;;;1.10;99.90;;;;;;5069645;28;20222;-75
2023/03/08 00:12:18;;;;;;;7.68;3.60;;;1.00;99.90;;;;;;5074046;28;20636;-75
2023/03/08 00:14:49;;;;;;;9.02;3.33;;;1.00;99.90;;;;;;5066891;28;20195;-74
2023/03/08 00:17:17;;;;;;;5.57;4.43;;;1.00;99.90;;;;;;5071895;28;20195;-75
2023/03/08 00:19:45;;;;;;;6.60;4.22;;;1.00;99.90;;;;;;5066296;28;20686;-75
2023/03/08 00:22:13;;;;;;;7.72;4.28;;;1.00;99.90;;;;;;5072796;28;20270;-75
2023/03/08 00:24:40;;;;;;;5.90;3.85;;;1.00;99.90;;;;;;5065426;28;20230;-75
2023/03/08 00:27:07;;;;;;;11.48;4.50;;;0.90;99.90;;;;;;5064998;28;20207;-75
2023/03/08 00:29:34;;;;;;;7.97;5.13;;;0.90;99.90;;;;;;5067576;28;20295;-75
2023/03/08 00:32:06;;;;;;;7.35;4.60;;;0.90;99.90;;;;;;5065818;28;20235;-73
2023/03/08 00:34:32;;;;;;;8.52;5.00;;;0.90;99.90;;;;;;5072734;28;20556;-74
2023/03/08 00:36:59;;;;;;;5.38;3.90;;;0.90;99.90;;;;;;5063711;28;20193;-74
2023/03/08 00:39:27;;;;;;;10.40;4.60;;;0.80;99.90;;;;;;5068283;28;20223;-76
2023/03/08 00:41:55;;;;;;;6.35;4.55;;;0.90;99.90;;;;;;5067662;28;20204;-74
2023/03/08 00:44:22;;;;;;;8.85;5.13;;;0.80;99.90;;;;;;5064761;28;20208;-74
2023/03/08 00:46:49;;;;;;;5.00;4.45;;;0.80;99.90;;;;;;5063175;28;20709;-75
2023/03/08 00:49:16;;;;;;;4.97;4.07;;;0.80;99.90;;;;;;5058020;28;20299;-75
2023/03/08 00:51:43;;;;;;;12.98;5.90;;;0.80;99.90;;;;;;5068635;28;20210;-73
2023/03/08 00:54:10;;;;;;;5.20;4.70;;;0.80;99.90;;;;;;5063954;28;20329;-74
2023/03/08 00:56:43;;;;;;;6.10;5.50;;;0.80;99.90;;;;;;5066554;28;20334;-73
2023/03/08 00:59:10;;;;;;;7.90;5.28;;;0.80;99.90;;;;;;5056564;28;20248;-75
2023/03/08 01:01:37;;;;;;;5.72;4.40;;;0.80;99.90;;;;;;5064194;28;20303;-75
2023/03/08 01:04:04;;;;;;;8.63;5.38;;;0.80;99.90;;;;;;5065658;28;20208;-75
2023/03/08 01:06:31;;;;;;;9.07;5.70;;;0.80;99.90;;;;;;5050457;28;20287;-75
2023/03/08 01:08:58;;;;;;;8.55;4.60;;;0.80;99.90;;;;;;5061964;28;20322;-74
2023/03/08 01:11:26;;;;;;;7.72;4.78;;;0.80;99.90;;;;;;5065549;28;20235;-75
2023/03/08 01:13:55;;;;;;;8.18;4.80;;;0.80;99.90;;;;;;5069924;28;20345;-76
2023/03/08 01:16:23;;;;;;;8.75;5.35;;;0.80;99.90;;;;;;5062743;28;20207;-75
2023/03/08 01:18:51;;;;;;;7.43;4.93;;;0.80;99.90;;;;;;5046651;28;20229;-74
2023/03/08 01:21:21;;;;;;;12.50;5.55;;;0.80;99.90;;;;;;5065687;28;20303;-75
2023/03/08 01:23:48;;;;;;;7.05;4.97;;;0.80;99.90;;;;;;5068092;28;20247;-74
2023/03/08 01:26:17;;;;;;;7.40;4.60;;;0.80;99.90;;;;;;5072835;28;20272;-76
2023/03/08 01:28:45;;;;;;;6.80;4.40;;;0.80;99.90;;;;;;5071887;28;20231;-75
2023/03/08 01:31:16;;;;;;;5.63;4.70;;;0.70;99.90;;;;;;5076733;28;20199;-75
2023/03/08 01:33:44;;;;;;;6.65;4.32;;;0.70;99.90;;;;;;5080949;28;20201;-75
2023/03/08 01:36:13;;;;;;;5.43;4.93;;;0.60;99.90;;;;;;5072170;28;20190;-74
2023/03/08 01:38:41;;;;;;;9.63;5.35;;;0.60;99.90;;;;;;5068348;28;20274;-75
2023/03/08 01:41:13;;;;;;;13.43;6.28;;;0.60;99.90;;;;;;5057589;28;20241;-75
2023/03/08 01:43:40;;;;;;;7.38;3.90;;;0.60;99.90;;;;;;5044975;28;20209;-75
2023/03/08 01:46:29;;;;;;;5.85;4.85;;;0.70;99.90;;;;;;5062350;28;20196;-75
2023/03/08 01:49:05;;;;;;;5.53;4.35;;;0.70;99.90;;;;;;5062413;28;20277;-76
2023/03/08 01:51:39;;;;;;;9.57;5.25;;;0.70;99.90;;;;;;5066612;28;20262;-76
2023/03/08 01:54:10;;;;;;;5.78;4.32;;;0.70;99.90;;;;;;5067644;28;20278;-75
2023/03/08 01:56:41;;;;;;;7.93;5.00;;;0.80;99.90;;;;;;5060187;28;20286;-75
2023/03/08 01:59:09;;;;;;;7.68;4.60;;;0.60;99.90;;;;;;5060962;28;20223;-75
2023/03/08 02:01:40;;;;;;;6.30;5.13;;;0.50;99.90;;;;;;5059958;28;20666;-74
2023/03/08 02:04:10;;;;;;;5.07;4.60;;;0.50;99.90;;;;;;5058379;28;20235;-75
2023/03/08 02:06:37;;;;;;;6.78;6.18;;;0.50;99.90;;;;;;5066551;28;20214;-75
2023/03/08 02:09:05;;;;;;;10.00;5.38;;;0.50;99.90;;;;;;5066513;28;20646;-75
2023/03/08 02:11:34;;;;;;;8.95;5.25;;;0.50;99.90;;;;;;5074725;28;20696;-75
2023/03/08 02:14:02;;;;;;;6.75;5.43;;;0.40;99.90;;;;;;5047034;28;20197;-75
2023/03/08 02:16:29;;;;;;;6.90;5.03;;;0.50;99.90;;;;;;5058499;28;20243;-74
2023/03/08 02:19:00;;;;;;;9.43;4.75;;;0.40;99.90;;;;;;5056384;28;20253;-75
2023/03/08 02:21:28;;;;;;;6.60;5.90;;;0.40;99.90;;;;;;5061060;28;20234;-75
2023/03/08 02:24:05;;;;;;;12.57;6.97;;;0.50;99.90;;;;;;5066058;28;20202;-74
2023/03/08 02:26:33;;;;;;;7.15;6.38;;;0.40;99.90;;;;;;5063197;28;20203;-73
2023/03/08 02:29:00;;;;;;;12.82;6.75;;;0.40;99.90;;;;;;5063684;28;20234;-74
2023/03/08 02:31:29;;;;;;;8.95;6.85;;;0.30;99.90;;;;;;5071966;28;20250;-74
2023/03/08 02:33:56;;;;;;;11.02;7.95;;;0.40;99.90;;;;;;5065248;28;20252;-75
2023/03/08 02:36:30;;;;;;;8.60;7.07;;;0.30;99.90;;;;;;5068191;28;20194;-74
2023/03/08 02:38:58;;;;;;;12.13;8.02;;;0.30;99.90;;;;;;5050752;28;20219;-74
2023/03/08 02:41:26;;;;;;;9.23;7.95;;;0.40;99.90;;;;;;5059499;28;20216;-74
2023/03/08 02:43:53;;;;;;;12.88;8.02;;;0.40;99.90;;;;;;5065259;28;20283;-75
2023/03/08 02:46:20;;;;;;;10.32;7.85;;;0.40;99.90;;;;;;5070592;28;20226;-75
2023/03/08 02:48:48;;;;;;;11.20;9.82;;;0.40;99.90;;;;;;5069573;28;20268;-75
2023/03/08 02:51:15;;;;;;;11.77;9.73;;;0.40;99.90;;;;;;5072600;28;20557;-76
2023/03/08 02:53:42;;;;;;;13.55;8.82;;;0.50;99.90;;;;;;5056129;28;20196;-73
2023/03/08 02:56:11;;;;;;;12.40;9.57;;;0.50;99.90;;;;;;5064254;28;20286;-74
2023/03/08 02:58:37;;;;;;;13.20;9.93;;;0.60;99.90;;;;;;5060019;28;20310;-74
2023/03/08 03:01:11;;;;;;;11.68;9.57;;;0.60;99.90;;;;;;5063136;28;20203;-74
2023/03/08 03:03:38;;;;;;;12.63;10.02;;;0.70;99.90;;;;;;5068885;28;20214;-75
2023/03/08 03:06:05;;;;;;;13.80;9.40;;;0.70;99.90;;;;;;5056877;28;20290;-75
2023/03/08 03:08:32;;;;;;;14.57;10.13;;;0.80;99.90;;;;;;5065020;28;20255;-75
2023/03/08 03:10:59;;;;;;;14.73;10.98;;;0.80;99.90;;;;;;5051994;28;20731;-75
2023/03/08 03:13:27;;;;;;;21.38;10.68;;;0.80;99.90;;;;;;5050373;28;20203;-74
2023/03/08 03:15:54;;;;;;;17.27;10.90;;;0.80;99.90;;;;;;5061736;28;20208;-74
2023/03/08 03:18:21;;;;;;;16.48;11.25;;;0.90;99.90;;;;;;5052962;28;20258;-74
2023/03/08 03:20:48;;;;;;;12.88;10.18;;;0.90;99.90;;;;;;5054397;28;20209;-75
2023/03/08 03:23:15;;;;;;;17.67;12.57;;;0.90;99.90;;;;;;5061011;28;20219;-75
2023/03/08 03:25:44;;;;;;;16.73;12.07;;;1.00;99.90;;;;;;5053743;28;20296;-75
2023/03/08 03:28:11;;;;;;;13.85;10.07;;;1.00;99.90;;;;;;5059164;28;20227;-75
2023/03/08 03:30:41;;;;;;;15.48;11.45;;;1.00;99.90;;;;;;5052541;28;20573;-75
2023/03/08 03:33:08;;;;;;;14.02;11.27;;;1.00;99.90;;;;;;5056646;28;20548;-75
2023/03/08 03:35:37;;;;;;;16.73;10.98;;;1.10;99.90;;;;;;5054904;28;20213;-75
2023/03/08 03:38:04;;;;;;;16.08;10.80;;;1.10;99.90;;;;;;5049958;28;20235;-76
2023/03/08 03:40:31;;;;;;;15.40;11.27;;;1.10;99.90;;;;;;5058139;28;20748;-75
2023/03/08 03:43:00;;;;;;;18.45;12.57;;;1.10;99.90;;;;;;5059914;28;20232;-74
2023/03/08 03:45:27;;;;;;;16.48;11.90;;;1.20;99.90;;;;;;5063945;28;20199;-73
2023/03/08 03:47:57;;;;;;;18.52;12.93;;;1.20;99.90;;;;;;5065219;28;20621;-74
2023/03/08 03:50:24;;;;;;;20.30;12.10;;;1.20;99.90;;;;;;5056711;28;20639;-74
2023/03/08 03:52:51;;;;;;;19.73;12.60;;;1.20;99.90;;;;;;5060561;28;20641;-75
2023/03/08 03:55:18;;;;;;;15.82;13.00;;;1.30;99.90;;;;;;5054834;28;20200;-74
2023/03/08 03:57:44;;;;;;;17.05;12.00;;;1.30;99.90;;;;;;5065381;28;20762;-74
2023/03/08 04:00:12;;;;;;;19.77;12.52;;;1.10;99.90;;;;;;5062581;28;20317;-75
2023/03/08 04:02:39;;;;;;;22.75;14.82;;;1.10;99.90;;;;;;5052102;28;20746;-75
2023/03/08 04:05:09;;;;;;;18.70;12.48;;;1.10;99.90;;;;;;5059984;28;20306;-73
2023/03/08 04:07:36;;;;;;;25.13;16.08;;;1.00;99.90;;;;;;5042818;28;20600;-75
2023/03/08 04:10:03;;;;;;;21.20;14.70;;;1.00;99.90;;;;;;5061565;28;20214;-75
2023/03/08 04:12:31;;;;;;;18.98;14.70;;;1.10;99.90;;;;;;5061717;28;20283;-74
2023/03/08 04:14:58;;;;;;;21.02;12.43;;;1.10;99.90;;;;;;5062902;28;20227;-73
2023/03/08 04:17:25;;;;;;;21.23;13.60;;;1.00;99.90;;;;;;5063748;28;20294;-74
2023/03/08 04:19:52;;;;;;;20.95;13.48;;;1.00;99.90;;;;;;5062430;28;20308;-74
2023/03/08 04:22:20;;;;;;;22.67;14.60;;;1.00;99.90;;;;;;5068174;28;20226;-75
2023/03/08 04:24:47;;;;;;;22.42;14.52;;;1.00;99.90;;;;;;5061379;28;20237;-74
2023/03/08 04:27:14;;;;;;;22.83;12.80;;;1.10;99.90;;;;;;5060454;28;20211;-75
2023/03/08 04:29:41;;;;;;;20.77;12.32;;;1.10;99.90;;;;;;5066518;28;20239;-75
2023/03/08 04:32:08;;;;;;;21.15;13.35;;;1.00;99.90;;;;;;5066977;28;20282;-74
2023/03/08 04:34:35;;;;;;;16.42;11.00;;;1.10;99.90;;;;;;5054359;28;20213;-73
2023/03/08 04:37:02;;;;;;;21.30;14.15;;;1.10;99.90;;;;;;5042474;28;20710;-74
2023/03/08 04:39:30;;;;;;;19.10;13.07;;;1.00;99.90;;;;;;5058169;28;20251;-74
2023/03/08 04:41:57;;;;;;;19.70;11.93;;;1.10;99.90;;;;;;5064502;28;20191;-74
2023/03/08 04:44:24;;;;;;;19.55;13.63;;;1.10;99.90;;;;;;5064578;28;20297;-74
2023/03/08 04:46:51;;;;;;;20.15;12.82;;;1.00;99.90;;;;;;5060607;28;20295;-74
2023/03/08 04:49:18;;;;;;;19.67;13.57;;;1.10;99.90;;;;;;5064436;28;20307;-75
2023/03/08 04:51:45;;;;;;;21.48;13.02;;;1.10;99.90;;;;;;5063535;28;20286;-75
2023/03/08 04:54:12;;;;;;;20.00;14.18;;;1.10;99.90;;;;;;5054210;28;20196;-74
2023/03/08 04:56:40;;;;;;;22.73;13.82;;;1.20;99.90;;;;;;5064132;28;20231;-75
2023/03/08 04:59:07;;;;;;;21.88;14.65;;;1.10;99.90;;;;;;5060566;28;20253;-74
2023/03/08 05:01:34;;;;;;;19.55;14.32;;;1.10;99.90;;;;;;5066399;28;20291;-76
2023/03/08 05:04:02;;;;;;;21.67;13.45;;;1.10;99.90;;;;;;5058157;28;20298;-76
2023/03/08 05:06:29;;;;;;;20.75;13.85;;;1.10;99.90;;;;;;5060130;28;20617;-75
2023/03/08 05:08:56;;;;;;;21.48;13.38;;;1.00;99.90;;;;;;5061947;28;20218;-74
2023/03/08 05:11:26;;;;;;;24.63;15.63;;;1.00;99.90;;;;;;5053378;28;20199;-75
2023/03/08 05:13:55;;;;;;;25.98;15.93;;;0.90;99.90;;;;;;5068520;28;20195;-75
2023/03/08 05:16:22;;;;;;;26.15;16.17;;;0.80;99.90;;;;;;5053965;28;20214;-75
2023/03/08 05:18:49;;;;;;;20.73;15.32;;;0.80;99.90;;;;;;5050335;28;20242;-75
2023/03/08 05:21:18;;;;;;;27.40;16.50;;;0.80;99.90;;;;;;5060679;28;20213;-74
2023/03/08 05:23:46;;;;;;;25.20;16.65;;;0.90;99.90;;;;;;5064415;28;20219;-75
2023/03/08 05:26:14;;;;;;;24.92;16.33;;;0.90;99.90;;;;;;5061153;28;20199;-75
2023/03/08 05:28:42;;;;;;;26.95;15.80;;;0.90;99.90;;;;;;5062694;28;20649;-74
2023/03/08 05:31:13;;;;;;;25.13;16.48;;;0.90;99.90;;;;;;5059816;28;20204;-75
2023/03/08 05:33:41;;;;;;;21.70;14.80;;;0.90;99.90;;;;;;5064067;28;20195;-75
2023/03/08 05:36:10;;;;;;;25.90;15.30;;;0.80;99.90;;;;;;5050872;28;20200;-74
2023/03/08 05:38:37;;;;;;;27.67;16.25;;;0.80;99.90;;;;;;5060315;28;20224;-74
2023/03/08 05:41:07;;;;;;;25.10;14.88;;;0.90;99.90;;;;;;5057305;28;20250;-74
2023/03/08 05:43:34;;;;;;;33.38;16.35;;;0.80;99.90;;;;;;5064393;28;20207;-74
2023/03/08 05:46:02;;;;;;;25.65;15.68;;;0.80;99.90;;;;;;5064090;28;20384;-75
2023/03/08 05:48:31;;;;;;;25.38;17.30;;;0.80;99.90;;;;;;5055893;28;20366;-76
2023/03/08 05:50:58;;;;;;;26.02;18.05;;;0.80;99.90;;;;;;5062832;28;20544;-75
2023/03/08 05:53:26;;;;;;;22.52;17.08;;;0.80;99.90;;;;;;5059894;28;20227;-74
2023/03/08 05:55:54;;;;;;;22.05;15.70;;;0.80;99.90;;;;;;5055647;28;20276;-74
2023/03/08 05:58:21;;;;;;;25.02;17.80;;;0.80;99.90;;;;;;5066091;28;20229;-74
2023/03/08 06:00:48;;;;;;;26.80;17.02;;;0.80;99.90;;;;;;5056531;28;20208;-74
2023/03/08 06:03:16;;;;;;;23.88;15.73;;;0.80;99.90;;;;;;5058834;28;20292;-74
2023/03/08 06:05:44;;;;;;;23.40;15.88;;;0.80;99.90;;;;;;5063084;28;20222;-74
2023/03/08 06:08:11;;;;;;;23.48;17.40;;;0.80;99.90;;;;;;5063705;28;20218;-74
2023/03/08 06:10:38;;;;;;;20.23;14.15;;;0.90;99.90;;;;;;5066681;28;20286;-76
2023/03/08 06:13:05;;;;;;;25.38;16.48;;;0.90;99.90;;;;;;5062109;28;20195;-76
2023/03/08 06:15:32;;;;;;;24.85;15.32;;;0.90;99.90;;;;;;5058155;28;20211;-76
2023/03/08 06:17:59;;;;;;;24.58;17.02;;;0.90;99.90;;;;;;5058629;28;20625;-77
2023/03/08 06:20:26;;;;;;;29.70;17.40;;;0.90;99.90;;;;;;5059914;28;20203;-77
2023/03/08 06:22:54;;;;;;;24.50;16.13;;;1.10;99.90;;;;;;5062604;28;20251;-75
2023/03/08 06:25:21;;;;;;;25.85;17.30;;;1.10;99.90;;;;;;5052384;28;20296;-74
2023/03/08 06:27:50;;;;;;;28.10;17.67;;;1.10;99.90;;;;;;5061024;28;20659;-76
2023/03/08 06:30:18;;;;;;;25.95;17.23;;;1.20;99.90;;;;;;5067724;28;20210;-75
2023/03/08 06:32:46;;;;;;;25.77;17.42;;;1.20;99.90;;;;;;5064241;28;20203;-75
2023/03/08 06:35:13;;;;;;;29.52;16.58;;;1.30;99.90;;;;;;5054584;28;20291;-75
2023/03/08 06:37:40;;;;;;;21.70;14.75;;;1.30;99.90;;;;;;5063732;28;20284;-77
2023/03/08 06:40:10;;;;;;;25.05;14.57;;;1.30;99.90;;;;;;5064135;28;20231;-75
2023/03/08 06:42:37;;;;;;;23.33;16.08;;;1.40;99.90;;;;;;5064384;28;20207;-76
2023/03/08 06:45:05;;;;;;;24.65;15.45;;;1.50;99.90;;;;;;5054943;28;20204;-74
2023/03/08 06:47:32;;;;;;;23.67;15.02;;;1.50;99.90;;;;;;5065087;28;20290;-74
2023/03/08 06:49:59;;;;;;;21.65;16.02;;;1.60;99.90;;;;;;5062094;28;20224;-74
2023/03/08 06:52:33;;;;;;;28.48;14.82;;;1.60;99.90;;;;;;5067351;28;20203;-75
2023/03/08 06:55:00;;;;;;;23.55;16.30;;;1.70;99.90;;;;;;5062175;28;20253;-75
2023/03/08 06:57:29;;;;;;;20.85;15.20;;;1.80;99.90;;;;;;5061139;28;20210;-76
2023/03/08 06:59:56;;;;;;;25.90;17.13;;;1.90;99.90;;;;;;5060202;28;20664;-75
2023/03/08 07:02:23;;;;;;;22.05;15.55;;;1.90;99.90;;;;;;5056926;28;20283;-77
2023/03/08 07:04:50;;;;;;;18.45;13.95;;;1.90;99.90;;;;;;5055306;28;20684;-75
2023/03/08 07:07:17;;;;;;;25.38;13.15;;;2.10;99.90;;;;;;5058350;28;20200;-75
2023/03/08 07:09:44;;;;;;;17.73;14.35;;;1.90;99.90;;;;;;5053079;28;20229;-75
2023/03/08 07:12:11;;;;;;;22.90;14.20;;;2.00;99.90;;;;;;5061614;28;20246;-75
2023/03/08 07:14:39;;;;;;;28.00;15.55;;;2.00;99.90;;;;;;5055994;28;20279;-76
2023/03/08 07:17:06;;;;;;;18.33;13.35;;;2.10;99.90;;;;;;5067097;28;20629;-75
2023/03/08 07:19:34;;;;;;;22.10;14.93;;;2.30;99.90;;;;;;5060061;28;20235;-75
2023/03/08 07:22:01;;;;;;;19.52;11.80;;;2.20;99.90;;;;;;5058486;28;20619;-75
2023/03/08 07:24:28;;;;;;;20.15;14.45;;;2.20;99.90;;;;;;5064633;28;20357;-73
2023/03/08 07:26:55;;;;;;;22.02;14.93;;;2.30;99.90;;;;;;5068401;28;20723;-75
2023/03/08 07:29:22;;;;;;;21.77;13.80;;;2.40;99.90;;;;;;5056646;28;20271;-74
2023/03/08 07:31:50;;;;;;;18.95;14.77;;;2.40;99.90;;;;;;5063572;28;20241;-76
2023/03/08 07:34:17;;;;;;;24.17;15.45;;;2.70;99.90;;;;;;5056721;28;20690;-73
2023/03/08 07:36:44;;;;;;;22.52;15.25;;;2.70;99.90;;;;;;5060182;28;20239;-74
2023/03/08 07:39:11;;;;;;;19.58;15.52;;;2.70;99.90;;;;;;5060833;28;20218;-75
2023/03/08 07:41:39;;;;;;;20.88;13.43;;;2.90;99.90;;;;;;5064700;28;20575;-75
2023/03/08 07:44:06;;;;;;;20.77;16.48;;;2.90;99.90;;;;;;5065506;28;20211;-74
2023/03/08 07:46:34;;;;;;;22.75;14.85;;;3.00;99.90;;;;;;5057321;28;20195;-75
2023/03/08 07:49:02;;;;;;;24.88;15.25;;;2.90;99.90;;;;;;5063529;28;20265;-73
2023/03/08 07:51:29;;;;;;;19.58;13.95;;;3.00;99.90;;;;;;5059520;28;20206;-74
2023/03/08 07:53:56;;;;;;;25.33;14.23;;;3.10;99.90;;;;;;5067937;28;20286;-74
2023/03/08 07:56:23;;;;;;;21.10;14.40;;;2.80;99.90;;;;;;5062649;28;20202;-75
2023/03/08 07:58:49;;;;;;;22.10;14.82;;;2.90;99.90;;;;;;5054038;28;20302;-74
2023/03/08 08:01:17;;;;;;;21.80;14.48;;;3.20;99.90;;;;;;5063996;28;20227;-74
2023/03/08 08:03:44;;;;;;;22.67;14.35;;;3.20;99.90;;;;;;5063215;28;20703;-73
2023/03/08 08:06:12;;;;;;;19.92;12.80;;;3.20;99.90;;;;;;5068264;28;20283;-74
2023/03/08 08:08:39;;;;;;;21.58;13.40;;;3.30;99.90;;;;;;5059368;28;20227;-75
2023/03/08 08:11:14;;;;;;;22.02;14.70;;;3.40;99.90;;;;;;5057874;28;20206;-75
2023/03/08 08:13:41;;;;;;;17.83;11.93;;;3.30;99.90;;;;;;5060818;28;20195;-74
2023/03/08 08:16:09;;;;;;;26.10;13.50;;;3.40;99.90;;;;;;5052266;28;20303;-74
2023/03/08 08:18:36;;;;;;;20.08;13.55;;;3.40;99.90;;;;;;5064525;28;20310;-75
2023/03/08 08:21:05;;;;;;;17.90;12.45;;;3.30;99.90;;;;;;5056060;28;20202;-74
2023/03/08 08:23:36;;;;;;;17.30;12.02;;;3.20;99.90;;;;;;5066190;28;20207;-74
2023/03/08 08:26:05;;;;;;;17.40;11.10;;;3.20;99.90;;;;;;5061216;28;20203;-75
2023/03/08 08:28:33;;;;;;;18.45;12.90;;;3.40;99.90;;;;;;5063211;28;20253;-75
2023/03/08 08:31:01;;;;;;;17.83;12.35;;;3.50;99.90;;;;;;5050115;28;20207;-74
2023/03/08 08:33:29;;;;;;;22.45;13.70;;;3.50;99.90;;;;;;5062877;28;20290;-73
2023/03/08 08:35:56;;;;;;;16.05;12.75;;;3.60;99.90;;;;;;5063569;28;20238;-74
2023/03/08 08:38:23;;;;;;;16.63;11.88;;;3.60;99.90;;;;;;5046906;28;20778;-74
2023/03/08 08:40:51;;;;;;;22.10;13.60;;;3.70;99.90;;;;;;5060148;28;20679;-74
2023/03/08 08:43:19;;;;;;;23.77;13.63;;;3.70;99.90;;;;;;5058623;28;20226;-75
2023/03/08 08:45:47;;;;;;;21.58;12.20;;;3.70;99.90;;;;;;5057964;28;20247;-76
2023/03/08 08:48:15;;;;;;;18.90;13.25;;;3.90;99.90;;;;;;5059132;28;20259;-75
2023/03/08 08:50:43;;;;;;;20.58;12.30;;;4.10;99.90;;;;;;5056115;28;20657;-75
2023/03/08 08:53:10;;;;;;;24.23;12.68;;;4.10;99.90;;;;;;5064108;28;20347;-75
2023/03/08 08:55:38;;;;;;;21.00;13.38;;;4.10;99.90;;;;;;5058155;28;20227;-76
2023/03/08 08:58:07;;;;;;;20.33;13.23;;;4.10;99.90;;;;;;5053478;28;20256;-75
2023/03/08 09:00:35;;;;;;;19.00;11.45;;;4.00;99.90;;;;;;5055988;28;20561;-75
2023/03/08 09:03:03;;;;;;;22.38;14.02;;;3.80;99.90;;;;;;5062291;28;20194;-74
2023/03/08 09:05:30;;;;;;;20.08;12.85;;;3.90;99.90;;;;;;5058671;28;20204;-74
2023/03/08 09:07:59;;;;;;;16.30;11.23;;;4.20;99.90;;;;;;5069032;28;20286;-74
2023/03/08 09:10:28;;;;;;;14.02;10.35;;;4.60;99.90;;;;;;5062142;28;20241;-76
2023/03/08 09:12:55;;;;;;;21.75;13.43;;;4.90;99.90;;;;;;5057616;28;20234;-75
2023/03/08 09:15:23;;;;;;;13.70;10.40;;;5.10;99.90;;;;;;5060576;28;20337;-75
2023/03/08 09:17:50;;;;;;;17.80;11.85;;;5.10;99.90;;;;;;5062977;28;20199;-75
2023/03/08 09:20:18;;;;;;;17.10;10.70;;;5.10;99.90;;;;;;5067880;28;20206;-75
2023/03/08 09:22:46;;;;;;;16.05;10.80;;;5.20;99.90;;;;;;5060621;28;20264;-74
2023/03/08 09:25:14;;;;;;;15.65;11.45;;;5.40;99.90;;;;;;5064309;28;20387;-75
2023/03/08 09:27:42;;;;;;;14.50;10.38;;;6.20;99.90;;;;;;5063920;28;20756;-75
2023/03/08 09:30:11;;;;;;;19.58;10.52;;;6.70;99.90;;;;;;5063015;28;20310;-75
2023/03/08 09:32:39;;;;;;;17.50;11.75;;;6.60;99.90;;;;;;5063076;28;20634;-75
2023/03/08 09:35:07;;;;;;;19.77;11.82;;;6.50;99.90;;;;;;5058932;28;20280;-75
2023/03/08 09:37:36;;;;;;;18.83;12.02;;;6.00;99.90;;;;;;5064375;28;20205;-75
2023/03/08 09:40:08;;;;;;;19.65;12.35;;;5.70;99.90;;;;;;5054731;28;20247;-76
2023/03/08 09:42:36;;;;;;;19.92;13.10;;;5.50;99.90;;;;;;5067819;28;20207;-76
2023/03/08 09:45:23;;;;;;;19.50;11.82;;;5.00;99.90;;;;;;5061346;28;20235;-75
2023/03/08 09:48:00;;;;;;;22.52;13.48;;;5.10;99.90;;;;;;5042482;28;20206;-75
2023/03/08 09:50:42;;;;;;;23.45;13.25;;;5.00;99.90;;;;;;5056824;28;20206;-75
2023/03/08 09:53:24;;;;;;;17.20;11.68;;;5.00;99.90;;;;;;5057427;28;20221;-76
2023/03/08 09:55:55;;;;;;;16.67;13.07;;;5.10;99.90;;;;;;5047392;28;20283;-76
2023/03/08 09:58:34;;;;;;;22.13;12.32;;;5.30;99.90;;;;;;5056985;28;20316;-78
2023/03/08 10:01:15;;;;;;;18.60;10.85;;;5.70;99.90;;;;;;5052991;28;20708;-76
2023/03/08 10:04:19;;;;;;;17.77;9.65;;;6.30;99.90;;;;;;5060232;28;20223;-75
2023/03/08 10:07:00;;;;;;;16.05;10.95;;;7.40;99.90;;;;;;5061023;28;20224;-75
2023/03/08 10:09:33;;;;;;;16.13;9.50;;;7.70;99.90;;;;;;5056806;28;20324;-77
2023/03/08 10:12:11;;;;;;;16.90;9.95;;;7.70;99.90;;;;;;5063442;28;20199;-76
2023/03/08 10:14:43;;;;;;;13.18;9.93;;;8.20;99.90;;;;;;5061036;28;20506;-76
2023/03/08 10:17:16;;;;;;;16.27;9.93;;;8.60;99.90;;;;;;5061663;28;20232;-75
2023/03/08 10:19:52;;;;;;;11.98;9.63;;;9.10;99.90;;;;;;5053471;28;20227;-75
2023/03/08 10:22:28;;;;;;;14.40;10.35;;;9.30;99.90;;;;;;5057954;28;20279;-74
2023/03/08 10:25:00;;;;;;;12.02;9.02;;;9.20;99.90;;;;;;5055110;28;20247;-75
2023/03/08 10:27:40;;;;;;;17.67;10.70;;;9.40;99.90;;;;;;5061016;28;20239;-74
2023/03/08 10:30:23;;;;;;;18.55;9.85;;;9.50;99.90;;;;;;5065273;28;20255;-75
2023/03/08 10:32:55;;;;;;;14.65;8.93;;;8.90;99.90;;;;;;5062578;28;20200;-75
2023/03/08 10:35:32;;;;;;;15.30;8.57;;;8.50;99.90;;;;;;5050994;28;20214;-75
2023/03/08 10:38:00;;;;;;;11.95;9.15;;;8.10;99.90;;;;;;5060065;28;20227;-77
2023/03/08 10:40:28;;;;;;;13.80;10.10;;;8.20;99.90;;;;;;5060925;28;20282;-76
2023/03/08 10:43:00;;;;;;;14.80;10.10;;;7.90;99.90;;;;;;5062689;28;20707;-77
2023/03/08 10:45:29;;;;;;;13.80;10.77;;;8.20;99.90;;;;;;5060125;28;20668;-75
2023/03/08 10:47:58;;;;;;;16.65;10.50;;;7.80;99.90;;;;;;5061758;28;20256;-75
2023/03/08 10:50:27;;;;;;;14.18;9.07;;;7.80;99.90;;;;;;5067790;28;20203;-75
2023/03/08 10:52:54;;;;;;;12.63;9.68;;;7.90;99.90;;;;;;5058365;28;20653;-77
2023/03/08 10:55:27;;;;;;;11.73;7.93;;;8.10;99.90;;;;;;5062573;28;20294;-75
2023/03/08 10:57:56;;;;;;;13.60;8.68;;;8.10;99.90;;;;;;5052531;28;20195;-75
2023/03/08 11:00:32;;;;;;;9.73;7.25;;;8.10;99.90;;;;;;5064511;28;20206;-74
2023/03/08 11:03:10;;;;;;;14.75;8.40;;;8.20;99.90;;;;;;5057297;28;20201;-75
2023/03/08 11:05:39;;;;;;;12.90;7.47;;;8.30;99.90;;;;;;5063889;28;20265;-75
2023/03/08 11:08:17;;;;;;;14.93;10.68;;;8.40;99.90;;;;;;5060765;28;20245;-75
2023/03/08 11:10:45;;;;;;;16.95;11.48;;;8.70;99.90;;;;;;5062670;28;20615;-75
2023/03/08 11:13:25;;;;;;;20.55;14.80;;;8.80;99.90;;;;;;5065438;28;20194;-75
2023/03/08 11:15:59;;;;;;;22.30;15.35;;;8.90;99.90;;;;;;5061134;28;20226;-74
2023/03/08 11:18:35;;;;;;;21.13;16.23;;;9.00;99.90;;;;;;5051753;28;20664;-77
2023/03/08 11:21:09;;;;;;;24.48;16.30;;;9.10;99.90;;;;;;5064273;28;20201;-76
2023/03/08 11:23:43;;;;;;;23.70;16.65;;;8.80;99.90;;;;;;5057198;28;20260;-77
2023/03/08 11:26:19;;;;;;;23.52;17.90;;;8.50;99.90;;;;;;5058260;28;20224;-77
2023/03/08 11:29:01;;;;;;;26.88;21.02;;;8.30;99.90;;;;;;5066920;28;20284;-76
2023/03/08 11:31:34;;;;;;;31.17;23.05;;;8.40;99.90;;;;;;5053196;28;20224;-77
2023/03/08 11:34:33;;;;;;;31.10;20.98;;;8.20;99.90;;;;;;5061648;28;20539;-77
2023/03/08 11:37:05;;;;;;;28.58;19.67;;;8.30;99.90;;;;;;5062220;28;20246;-76
2023/03/08 11:39:35;;;;;;;26.33;18.17;;;8.30;99.90;;;;;;5059534;28;20258;-75
2023/03/08 11:42:15;;;;;;;22.63;15.40;;;8.30;99.90;;;;;;5071979;28;20215;-76
2023/03/08 11:45:03;;;;;;;19.38;14.73;;;8.20;99.90;;;;;;5065910;28;20281;-75
2023/03/08 11:48:04;;;;;;;16.25;14.10;;;7.70;99.90;;;;;;5062715;28;20208;-75
2023/03/08 11:50:34;;;;;;;19.30;12.65;;;7.40;99.90;;;;;;5047727;28;20238;-75
2023/03/08 11:53:10;;;;;;;20.33;12.90;;;6.50;99.90;;;;;;5060122;28;20203;-77
2023/03/08 11:55:50;;;;;;;18.95;11.98;;;6.80;99.90;;;;;;5059130;28;20614;-77
2023/03/08 11:58:26;;;;;;;19.58;13.65;;;7.10;99.90;;;;;;5049581;28;20317;-76
2023/03/08 12:00:59;;;;;;;18.45;11.10;;;7.20;99.90;;;;;;5053912;28;20202;-76
2023/03/08 12:03:31;;;;;;;13.35;8.93;;;7.50;99.90;;;;;;5061330;28;20247;-76
2023/03/08 12:06:04;;;;;;;12.68;8.55;;;7.60;99.90;;;;;;5064032;28;20303;-77
2023/03/08 12:08:36;;;;;;;11.48;8.15;;;7.80;99.90;;;;;;5056766;28;20219;-76
2023/03/08 12:11:07;;;;;;;16.30;9.23;;;7.70;99.90;;;;;;5053258;28;20208;-75
2023/03/08 12:13:39;;;;;;;10.95;7.85;;;7.30;99.90;;;;;;5058371;28;20198;-76
2023/03/08 12:16:13;;;;;;;16.17;9.43;;;7.40;99.90;;;;;;5059725;28;20204;-76
2023/03/08 12:18:48;;;;;;;13.48;8.05;;;7.60;99.90;;;;;;5067693;28;20219;-75
2023/03/08 12:21:27;;;;;;;12.60;8.45;;;7.60;99.90;;;;;;5057675;28;20245;-77
2023/03/08 12:24:02;;;;;;;10.07;7.55;;;7.10;99.90;;;;;;5062729;28;20210;-75
2023/03/08 12:26:34;;;;;;;14.32;7.38;;;7.40;99.90;;;;;;5061985;28;20223;-75
2023/03/08 12:29:07;;;;;;;17.50;8.60;;;7.50;99.90;;;;;;5071247;28;20268;-76
2023/03/08 12:31:40;;;;;;;13.07;7.75;;;7.50;99.90;;;;;;5064361;28;20694;-77
2023/03/08 12:34:13;;;;;;;14.23;7.35;;;7.50;99.90;;;;;;5061057;28;20211;-76
2023/03/08 12:36:45;;;;;;;12.70;7.45;;;7.30;99.90;;;;;;5065212;28;20205;-75
2023/03/08 12:39:27;;;;;;;11.10;5.80;;;7.40;99.90;;;;;;5068230;28;20223;-77
2023/03/08 12:42:02;;;;;;;9.35;6.85;;;7.20;99.90;;;;;;5057744;28;20256;-75
2023/03/08 12:44:31;;;;;;;14.85;6.63;;;7.30;99.90;;;;;;5063143;28;20202;-75
2023/03/08 12:47:01;;;;;;;13.32;8.73;;;7.30;99.90;;;;;;5060177;28;20293;-77
2023/03/08 12:49:33;;;;;;;13.38;6.95;;;7.30;99.90;;;;;;5060959;28;20705;-76
2023/03/08 12:52:03;;;;;;;11.80;5.65;;;7.30;99.90;;;;;;5065696;28;20567;-76
2023/03/08 12:54:33;;;;;;;8.75;6.10;;;7.50;99.90;;;;;;5068875;28;20619;-76
2023/03/08 12:57:02;;;;;;;11.13;6.25;;;7.50;99.90;;;;;;5053536;28;20556;-75